L'Isle-aux-Coudres to Tadoussac: Past 24 Hour Conditions

 

J.A. Douglas McCurdy Sydney Airport

06:00 AM ADT 30 July 2014
This table is a summary of hourly weather conditions for the past 24 hours.
Date / Time
(ADT)
Wind(knots) Conditions Visibility(km) Pressure(kPa) Air tempC) Relative humidity(%) Dew pointC) Humidex
30 July 2014
6:00 SSW 3 Fog 1 101.8 20 99 19 *
5:00 S 6 Fog 8 101.7 19 98 19 *
4:00 SSW 6 Fog 1 101.7 19 98 19 *
3:00 SSW 6 Fog 2 101.7 19 98 19 *
2:00 S 8 Fog 10 101.7 19 96 19 *
1:00 S 8 Fog 8 101.6 20 95 19 *
0:00 S 10 Fog 8 101.7 20 95 19 27
29 July 2014
23:00 S 10 Fog 8 101.6 20 95 20 28
22:00 S 9 Fog 8 101.6 21 93 20 28
21:00 SSW 8 Fog 8 101.6 22 91 20 29
20:00 SSW 8 Fog 8 101.5 22 90 21 30
19:00 SSW 9 gust 18 Fog 8 101.5 23 87 21 32
18:00 SSW 14 gust 22 Cloudy 13 101.4 24 81 21 33
17:00 SSW 11 gust 23 Cloudy 16 101.3 25 80 21 33
16:00 SSW 12 gust 26 Cloudy 16 101.3 26 79 22 34
15:00 SSW 13 gust 18 Cloudy 16 101.3 25 77 20 33
14:00 SSW 14 gust 21 Cloudy 16 101.3 24 83 21 33
13:00 SSW 9 gust 17 Haze 6 101.3 23 85 20 30
12:00 S 14 gust 20 Cloudy 24 101.3 24 77 20 31
11:00 SSW 15 gust 23 Cloudy 24 101.2 25 77 20 32
10:00 SSW 14 gust 21 Mostly Cloudy 24 101.2 24 77 20 31
9:00 S 13 gust 20 Partly Cloudy 16 101.2 22 88 20 30
8:00 SSW 12 gust 24 Fog 6 101.1 22 93 20 29
7:00 S 15 gust 20 Fog 2 101.1 21 96 20 29
6:00 S 12 gust 18 Fog 2 101.1 21 96 20 29
 
Map of Atlantic - Maritimes marine weather areas East Scotia Slope - 44137 Southwestern Grand Banks - 44138 Banquereau - 44139 Laurentian Fan - 44141 LaHave Bank - 44150 Northeast Burgeo Bank - 44255 Halifax Harbour - 44258 Mont-Louis - 45138 Baie-Comeau Airport Havre-Saint-Pierre Airport Longue-Pointe-de-Mingan Sept-Îles Airport Cap-d'Espoir Rivière-la-Madeleine Gaspé Airport Heath Point La Pocatière Mont-Joli Airport New Carlisle Pointe-au-Père Port Menier Rivière-du-Loup Bas Caraquet Bathurst Airport Bouctouche AAFC Charlo Miramichi Fundy Park (Alma) Grand Manan Kouchibouguac Miscou Island Greater Moncton Int'l Airport Point Lepreau Saint John Airport St. Stephen Baccaro Point Beaver Island Brier Island Caribou Point Debert Grand Étang CFB Greenwood Hart Island Ingonish Beach Kentville AAFC Lunenburg McNabs Island Nappan AAFC North Mountain Parrsboro Sable Island St.Paul Island Shearwater Airport J.A. Douglas McCurdy Sydney Airport Tracadie Western Head Yarmouth Airport Charlottetown Airport East Point North Cape Summerside Burgeo Port aux Basques Sagona Island St. Lawrence Stephenville Airport Winterland Wreckhouse Île aux Perroquets Île Rouge Pointe-des-Monts Pointe-Noire Île Bicquette Cap-Chat Îles de la Madeleine Airport
Legend: buoyBuoy land stationLand Station » US Marine Weather